createdAt,value
2019-05-20T00:01:18.851Z,6.83
2019-05-20T00:03:45.285Z,5.37
2019-05-20T00:06:11.822Z,6.58
2019-05-20T00:08:38.234Z,6.55
2019-05-20T00:11:04.914Z,6.65
2019-05-20T00:13:32.357Z,6.33
2019-05-20T00:15:58.753Z,8.25
2019-05-20T00:18:25.196Z,6.83
2019-05-20T00:20:51.649Z,7.22
2019-05-20T00:23:18.037Z,6.53
2019-05-20T00:25:44.483Z,6.42
2019-05-20T00:28:11.002Z,7.40
2019-05-20T00:30:37.412Z,7.53
2019-05-20T00:33:03.814Z,8.33
2019-05-20T00:35:31.396Z,7.50
2019-05-20T00:37:57.928Z,7.42
2019-05-20T00:40:24.317Z,7.17
2019-05-20T00:42:51.031Z,6.28
2019-05-20T00:45:17.542Z,6.28
2019-05-20T00:47:43.899Z,7.03
2019-05-20T00:50:10.462Z,7.03
2019-05-20T00:52:36.854Z,7.50
2019-05-20T00:55:06.249Z,6.42
2019-05-20T00:57:34.438Z,6.28
2019-05-20T01:00:00.833Z,5.75
2019-05-20T01:02:27.298Z,6.47
2019-05-20T01:04:53.784Z,6.03
2019-05-20T01:07:20.205Z,4.80
2019-05-20T01:09:46.607Z,5.87
2019-05-20T01:12:13.068Z,6.28
2019-05-20T01:14:39.609Z,5.12
2019-05-20T01:17:05.891Z,5.95
2019-05-20T01:19:33.199Z,5.78
2019-05-20T01:21:59.690Z,5.22
2019-05-20T01:24:26.112Z,6.33
2019-05-20T01:26:52.700Z,6.15
2019-05-20T01:29:19.062Z,5.62
2019-05-20T01:31:45.416Z,5.53
2019-05-20T01:34:11.821Z,5.00
2019-05-20T01:36:38.116Z,4.72
2019-05-20T01:39:05.299Z,5.25
2019-05-20T01:41:33.685Z,5.58
2019-05-20T01:44:00.024Z,5.67
2019-05-20T01:46:26.598Z,4.92
2019-05-20T01:48:53.230Z,5.97
2019-05-20T01:51:19.770Z,5.65
2019-05-20T01:53:46.337Z,5.50
2019-05-20T01:56:14.850Z,6.40
2019-05-20T01:58:41.199Z,6.03
2019-05-20T02:01:07.606Z,6.47
2019-05-20T02:03:35.071Z,6.85
2019-05-20T02:06:01.495Z,5.67
2019-05-20T02:08:28.042Z,6.03
2019-05-20T02:10:56.428Z,6.53
2019-05-20T02:13:24.638Z,7.97
2019-05-20T02:15:58.869Z,7.45
2019-05-20T02:18:25.428Z,6.53
2019-05-20T02:20:51.821Z,7.42
2019-05-20T02:23:19.937Z,7.50
2019-05-20T02:25:47.455Z,8.00
2019-05-20T02:28:13.915Z,7.30
2019-05-20T02:30:40.471Z,7.55
2019-05-20T02:33:06.887Z,7.40
2019-05-20T02:35:33.296Z,7.87
2019-05-20T02:37:59.870Z,6.55
2019-05-20T02:40:26.236Z,7.78
2019-05-20T02:42:52.669Z,6.45
2019-05-20T02:45:19.270Z,7.87
2019-05-20T02:47:45.639Z,7.87
2019-05-20T02:50:12.171Z,7.05
2019-05-20T02:52:38.611Z,8.60
2019-05-20T02:55:05.757Z,7.35
2019-05-20T02:57:34.931Z,7.20
2019-05-20T03:00:01.811Z,7.50
2019-05-20T03:02:29.598Z,6.45
2019-05-20T03:04:56.083Z,7.08
2019-05-20T03:07:24.325Z,8.30
2019-05-20T03:09:50.849Z,8.45
2019-05-20T03:12:17.272Z,9.48
2019-05-20T03:14:43.713Z,7.17
2019-05-20T03:17:10.082Z,6.90
2019-05-20T03:19:36.438Z,7.55
2019-05-20T03:22:03.257Z,6.08
2019-05-20T03:24:29.631Z,6.25
2019-05-20T03:26:56.055Z,6.00
2019-05-20T03:29:22.660Z,5.85
2019-05-20T03:31:48.927Z,5.83
2019-05-20T03:34:41.515Z,6.47
2019-05-20T03:36:43.749Z,4.78
2019-05-20T03:39:10.106Z,4.50
2019-05-20T03:41:36.471Z,4.72
2019-05-20T03:44:02.898Z,4.28
2019-05-20T03:46:29.368Z,4.83
2019-05-20T03:48:55.713Z,4.55
2019-05-20T03:51:22.254Z,3.90
2019-05-20T03:53:48.749Z,4.10
2019-05-20T03:56:15.183Z,3.55
2019-05-20T03:58:44.138Z,3.62
2019-05-20T04:01:10.679Z,3.92
2019-05-20T04:03:37.129Z,3.85
2019-05-20T04:06:03.648Z,2.98
2019-05-20T04:08:31.036Z,3.87
2019-05-20T04:10:57.422Z,3.00
2019-05-20T04:13:24.850Z,3.12
2019-05-20T04:15:51.256Z,2.90
2019-05-20T04:18:17.712Z,2.77
2019-05-20T04:20:44.476Z,2.95
2019-05-20T04:23:10.926Z,3.15
2019-05-20T04:25:37.710Z,3.15
2019-05-20T04:28:04.199Z,3.12
2019-05-20T04:30:30.614Z,2.95
2019-05-20T04:32:57.148Z,3.60
2019-05-20T04:35:25.298Z,3.02
2019-05-20T04:37:51.750Z,3.12
2019-05-20T04:40:18.041Z,2.87
2019-05-20T04:42:44.448Z,2.77
2019-05-20T04:45:11.406Z,2.17
2019-05-20T04:47:37.836Z,2.42
2019-05-20T04:50:05.632Z,5.15
2019-05-20T04:52:32.023Z,17.85
2019-05-20T04:54:58.422Z,5.37
2019-05-20T04:57:25.975Z,2.15
2019-05-20T04:59:53.394Z,3.12
2019-05-20T05:02:19.780Z,2.75
2019-05-20T05:04:46.130Z,2.05
2019-05-20T05:07:12.563Z,2.65
2019-05-20T05:09:39.080Z,2.52
2019-05-20T05:12:07.877Z,3.55
2019-05-20T05:14:34.297Z,2.72
2019-05-20T05:17:00.713Z,3.00
2019-05-20T05:19:28.233Z,2.27
2019-05-20T05:21:55.443Z,2.67
2019-05-20T05:24:22.082Z,2.85
2019-05-20T05:26:48.488Z,2.85
2019-05-20T05:29:15.764Z,3.77
2019-05-20T05:31:42.199Z,3.25
2019-05-20T05:34:08.644Z,3.35
2019-05-20T05:36:35.043Z,3.62
2019-05-20T05:39:01.496Z,4.03
2019-05-20T05:41:29.122Z,3.55
2019-05-20T05:43:55.449Z,2.33
2019-05-20T05:46:21.859Z,3.02
2019-05-20T05:48:48.350Z,2.67
2019-05-20T05:51:14.705Z,2.98
2019-05-20T05:53:41.144Z,2.77
2019-05-20T05:56:07.639Z,2.47
2019-05-20T05:58:34.043Z,2.83
2019-05-20T06:01:01.574Z,2.35
2019-05-20T06:03:29.808Z,1.77
2019-05-20T06:06:10.682Z,2.17
2019-05-20T06:08:25.480Z,2.22
2019-05-20T06:10:51.955Z,2.27
2019-05-20T06:13:18.386Z,2.27
2019-05-20T06:15:44.757Z,1.90
2019-05-20T06:18:11.225Z,1.98
2019-05-20T06:20:37.633Z,1.35
2019-05-20T06:23:04.062Z,1.60
2019-05-20T06:25:31.487Z,1.62
2019-05-20T06:27:57.971Z,1.40
2019-05-20T06:30:36.792Z,1.57
2019-05-20T06:33:03.601Z,1.00
2019-05-20T06:35:30.153Z,1.60
2019-05-20T06:37:58.637Z,1.12
2019-05-20T06:40:25.010Z,1.82
2019-05-20T06:42:51.293Z,1.42
2019-05-20T06:45:17.851Z,1.30
2019-05-20T06:47:44.279Z,1.85
2019-05-20T06:50:10.721Z,1.65
2019-05-20T06:52:37.170Z,1.50
2019-05-20T06:55:06.161Z,1.87
2019-05-20T06:57:32.568Z,1.55
2019-05-20T06:59:58.882Z,1.72
2019-05-20T07:02:27.062Z,1.55
2019-05-20T07:04:53.818Z,2.05
2019-05-20T07:07:21.595Z,1.82
2019-05-20T07:09:49.000Z,2.00
2019-05-20T07:12:15.585Z,1.32
2019-05-20T07:14:41.967Z,1.80
2019-05-20T07:17:08.389Z,1.77
2019-05-20T07:19:34.806Z,1.47
2019-05-20T07:22:01.421Z,1.45
2019-05-20T07:24:27.879Z,1.98
2019-05-20T07:26:54.284Z,1.30
2019-05-20T07:29:21.749Z,1.98
2019-05-20T07:31:48.289Z,1.27
2019-05-20T07:34:14.675Z,1.60
2019-05-20T07:36:41.388Z,1.45
2019-05-20T07:39:07.675Z,1.65
2019-05-20T07:41:34.300Z,2.02
2019-05-20T07:44:00.804Z,1.85
2019-05-20T07:46:27.194Z,1.85
2019-05-20T07:48:53.666Z,2.72
2019-05-20T07:51:21.060Z,2.35
2019-05-20T07:53:48.637Z,1.98
2019-05-20T07:56:19.211Z,2.40
2019-05-20T07:58:47.859Z,3.22
2019-05-20T08:01:14.603Z,2.60
2019-05-20T08:03:42.144Z,2.87
2019-05-20T08:06:08.531Z,2.62
2019-05-20T08:08:35.101Z,2.47
2019-05-20T08:11:01.750Z,2.60
2019-05-20T08:13:28.297Z,2.62
2019-05-20T08:15:54.672Z,2.67
2019-05-20T08:18:21.052Z,3.10
2019-05-20T08:20:47.482Z,2.72
2019-05-20T08:23:13.926Z,2.83
2019-05-20T08:25:40.401Z,2.70
2019-05-20T08:28:06.833Z,2.58
2019-05-20T08:30:35.901Z,2.75
2019-05-20T08:33:04.023Z,2.27
2019-05-20T08:35:30.427Z,2.20
2019-05-20T08:37:56.842Z,2.60
2019-05-20T08:40:23.468Z,2.15
2019-05-20T08:42:50.844Z,2.70
2019-05-20T08:45:17.235Z,2.35
2019-05-20T08:47:43.778Z,2.25
2019-05-20T08:50:15.507Z,1.95
2019-05-20T08:52:38.552Z,2.12
2019-05-20T08:55:05.353Z,2.17
2019-05-20T08:57:31.831Z,2.12
2019-05-20T08:59:58.213Z,2.33
2019-05-20T09:02:24.665Z,1.87
2019-05-20T09:04:52.900Z,1.87
2019-05-20T09:07:19.371Z,2.00
2019-05-20T09:09:45.841Z,2.00
2019-05-20T09:12:12.406Z,2.42
2019-05-20T09:14:40.600Z,2.20
2019-05-20T09:17:09.080Z,1.85
2019-05-20T09:19:35.565Z,1.42
2019-05-20T09:22:01.989Z,2.20
2019-05-20T09:24:28.616Z,1.77
2019-05-20T09:26:55.193Z,1.85
2019-05-20T09:29:21.709Z,0.80
2019-05-20T09:31:48.366Z,1.30
2019-05-20T09:34:15.817Z,0.57
2019-05-20T09:36:42.394Z,0.60
2019-05-20T09:39:09.889Z,1.45
2019-05-20T09:41:36.457Z,0.82
2019-05-20T09:44:04.230Z,0.82
2019-05-20T09:46:30.818Z,0.72
2019-05-20T09:48:57.385Z,0.60
2019-05-20T09:51:23.957Z,0.80
2019-05-20T09:53:50.522Z,0.55
2019-05-20T09:56:16.955Z,0.62
2019-05-20T09:58:43.484Z,0.60
2019-05-20T10:01:10.960Z,0.68
2019-05-20T10:03:37.358Z,0.70
2019-05-20T10:06:04.108Z,0.75
2019-05-20T10:08:37.955Z,0.57
2019-05-20T10:10:59.834Z,0.50
2019-05-20T10:13:26.962Z,0.53
2019-05-20T10:15:53.857Z,0.50
2019-05-20T10:18:36.004Z,0.40
2019-05-20T10:20:48.639Z,0.30
2019-05-20T10:23:16.163Z,0.40
2019-05-20T10:25:42.647Z,0.40
2019-05-20T10:28:09.087Z,0.55
2019-05-20T10:30:35.572Z,0.40
2019-05-20T10:33:01.970Z,0.35
2019-05-20T10:35:28.418Z,0.30
2019-05-20T10:37:54.906Z,0.60
2019-05-20T10:40:21.393Z,0.30
2019-05-20T10:42:47.862Z,0.28
2019-05-20T10:45:15.300Z,0.20
2019-05-20T10:47:41.810Z,0.10
2019-05-20T10:50:08.396Z,0.33
2019-05-20T10:52:34.934Z,0.17
2019-05-20T10:55:01.433Z,0.25
2019-05-20T10:57:27.890Z,0.30
2019-05-20T10:59:54.360Z,0.20
2019-05-20T11:02:21.033Z,0.10
2019-05-20T11:04:47.534Z,0.40
2019-05-20T11:07:16.841Z,0.20
2019-05-20T11:09:43.312Z,0.28
2019-05-20T11:12:09.835Z,0.30
2019-05-20T11:14:36.295Z,0.20
2019-05-20T11:17:02.816Z,0.20
2019-05-20T11:19:29.374Z,0.30
2019-05-20T11:21:55.955Z,0.25
2019-05-20T11:24:22.475Z,0.25
2019-05-20T11:26:48.879Z,0.30
2019-05-20T11:29:16.407Z,0.20
2019-05-20T11:31:42.881Z,0.47
2019-05-20T11:34:09.283Z,0.30
2019-05-20T11:36:35.899Z,0.30
2019-05-20T11:39:07.364Z,0.17
2019-05-20T11:41:52.601Z,0.23
2019-05-20T11:44:01.841Z,0.30
2019-05-20T11:46:28.259Z,0.33
2019-05-20T11:48:55.027Z,0.23
2019-05-20T11:51:21.654Z,0.20
2019-05-20T11:53:48.096Z,0.30
2019-05-20T11:56:14.573Z,0.00
2019-05-20T11:58:41.011Z,0.20
2019-05-20T12:01:07.528Z,0.20
2019-05-20T12:03:34.041Z,0.30
2019-05-20T12:06:00.548Z,0.20
2019-05-20T12:08:28.725Z,0.13
2019-05-20T12:10:56.144Z,0.35
2019-05-20T12:13:22.511Z,0.60
2019-05-20T12:15:48.979Z,0.30
2019-05-20T12:18:15.419Z,0.28
2019-05-20T12:20:41.792Z,0.25
2019-05-20T12:23:08.604Z,0.40
2019-05-20T12:25:35.073Z,0.55
2019-05-20T12:28:01.462Z,0.30
2019-05-20T12:30:27.901Z,0.50
2019-05-20T12:33:17.356Z,0.30
2019-05-20T12:35:24.615Z,0.20
2019-05-20T12:37:52.321Z,0.40
2019-05-20T12:40:19.784Z,0.40
2019-05-20T12:42:46.941Z,0.50
2019-05-20T12:45:13.432Z,0.40
2019-05-20T12:47:40.650Z,0.30
2019-05-20T12:50:07.484Z,0.30
2019-05-20T12:52:35.036Z,0.23
2019-05-20T12:55:09.138Z,0.40
2019-05-20T12:57:31.575Z,0.53
2019-05-20T12:59:58.576Z,0.40
2019-05-20T13:02:27.361Z,0.60
2019-05-20T13:04:54.374Z,0.23
2019-05-20T13:07:21.680Z,0.40
2019-05-20T13:09:50.482Z,0.35
2019-05-20T13:12:17.163Z,0.20
2019-05-20T13:14:43.715Z,0.23
2019-05-20T13:17:11.644Z,0.30
2019-05-20T13:19:38.357Z,0.40
2019-05-20T13:22:05.048Z,0.40
2019-05-20T13:24:31.588Z,0.35
2019-05-20T13:26:58.941Z,0.40
2019-05-20T13:29:25.831Z,0.60
2019-05-20T13:31:53.025Z,0.20
2019-05-20T13:34:20.108Z,0.40
2019-05-20T13:36:47.283Z,0.33
2019-05-20T13:39:15.680Z,0.28
2019-05-20T13:41:42.311Z,0.30
2019-05-20T13:44:08.930Z,0.40
2019-05-20T13:46:35.922Z,0.30
2019-05-20T13:49:02.908Z,0.50
2019-05-20T13:51:30.125Z,0.40
2019-05-20T13:53:56.994Z,0.30
2019-05-20T13:56:23.812Z,0.30
2019-05-20T13:58:50.859Z,0.65
2019-05-20T14:01:19.946Z,0.40
2019-05-20T14:03:46.767Z,0.40
2019-05-20T14:06:14.122Z,0.40
2019-05-20T14:08:40.995Z,1.07
2019-05-20T14:11:09.424Z,0.23
2019-05-20T14:13:36.273Z,0.28
2019-05-20T14:16:03.648Z,0.15
2019-05-20T14:18:30.540Z,0.30
2019-05-20T14:20:57.511Z,0.30
2019-05-20T14:23:25.734Z,0.30
2019-05-20T14:25:52.417Z,0.20
2019-05-20T14:28:18.999Z,0.20
2019-05-20T14:30:45.856Z,0.13
2019-05-20T14:33:12.465Z,0.57
2019-05-20T14:35:38.934Z,0.40
2019-05-20T14:38:05.817Z,0.30
2019-05-20T14:40:32.300Z,0.20
2019-05-20T14:42:58.890Z,0.50
2019-05-20T14:45:26.363Z,0.33
2019-05-20T14:47:52.926Z,0.40
2019-05-20T14:50:19.422Z,0.60
2019-05-20T14:52:45.979Z,0.20
2019-05-20T14:55:12.420Z,0.30
2019-05-20T14:57:39.097Z,0.30
2019-05-20T15:00:08.323Z,0.60
2019-05-20T15:02:35.678Z,0.30
2019-05-20T15:05:03.203Z,0.25
2019-05-20T15:07:31.444Z,0.20
2019-05-20T15:09:58.047Z,0.30
2019-05-20T15:12:25.401Z,0.40
2019-05-20T15:14:51.759Z,0.47
2019-05-20T15:17:18.162Z,0.25
2019-05-20T15:19:44.667Z,0.30
2019-05-20T15:22:11.117Z,0.37
2019-05-20T15:24:37.510Z,0.40
2019-05-20T15:27:03.989Z,0.35
2019-05-20T15:29:32.171Z,0.30
2019-05-20T15:31:58.648Z,0.40
2019-05-20T15:34:25.148Z,0.30
2019-05-20T15:36:51.705Z,0.42
2019-05-20T15:39:18.070Z,0.25
2019-05-20T15:41:44.539Z,0.37
2019-05-20T15:44:11.217Z,0.28
2019-05-20T15:46:37.615Z,0.47
2019-05-20T15:49:03.994Z,0.40
2019-05-20T15:51:31.563Z,0.37
2019-05-20T15:53:59.026Z,0.35
2019-05-20T15:56:25.397Z,0.70
2019-05-20T15:58:52.181Z,0.37
2019-05-20T16:01:18.629Z,0.40
2019-05-20T16:03:45.008Z,0.25
2019-05-20T16:06:11.740Z,0.40
2019-05-20T16:08:38.183Z,0.40
2019-05-20T16:11:06.852Z,0.60
2019-05-20T16:13:34.737Z,0.40
2019-05-20T16:16:01.033Z,0.57
2019-05-20T16:18:27.437Z,0.40
2019-05-20T16:20:54.017Z,0.42
2019-05-20T16:23:20.496Z,0.33
2019-05-20T16:25:46.932Z,0.47
2019-05-20T16:28:13.398Z,0.20
2019-05-20T16:30:40.076Z,0.35
2019-05-20T16:33:06.577Z,0.30
2019-05-20T16:35:33.881Z,0.33
2019-05-20T16:38:00.379Z,0.30
2019-05-20T16:40:26.916Z,0.20
2019-05-20T16:42:53.479Z,0.57
2019-05-20T16:45:20.011Z,0.30
2019-05-20T16:47:46.441Z,0.30
2019-05-20T16:50:12.983Z,1.02
2019-05-20T16:52:39.466Z,0.30
2019-05-20T16:55:06.732Z,0.30
2019-05-20T16:57:34.712Z,0.78
2019-05-20T17:00:01.114Z,0.60
2019-05-20T17:02:27.639Z,0.40
2019-05-20T17:04:54.026Z,0.28
2019-05-20T17:07:20.356Z,0.40
2019-05-20T17:09:47.209Z,0.45
2019-05-20T17:12:13.592Z,0.45
2019-05-20T17:14:41.004Z,0.40
2019-05-20T17:17:07.436Z,0.47
2019-05-20T17:19:35.710Z,0.20
2019-05-20T17:22:02.113Z,0.30
2019-05-20T17:24:28.653Z,0.35
2019-05-20T17:26:55.298Z,0.50
2019-05-20T17:29:21.700Z,0.50
2019-05-20T17:31:48.082Z,0.42
2019-05-20T17:34:15.570Z,0.45
2019-05-20T17:36:42.043Z,0.50
2019-05-20T17:39:08.544Z,0.30
2019-05-20T17:41:35.359Z,0.50
2019-05-20T17:44:01.779Z,0.37
2019-05-20T17:46:28.302Z,0.40
2019-05-20T17:48:54.826Z,0.25
2019-05-20T17:51:21.194Z,0.45
2019-05-20T17:53:47.524Z,0.20
2019-05-20T17:56:14.020Z,0.60
2019-05-20T17:58:40.580Z,0.50
2019-05-20T18:01:15.366Z,1.05
2019-05-20T18:03:37.067Z,0.40
2019-05-20T18:06:03.526Z,0.75
2019-05-20T18:08:31.913Z,0.50
2019-05-20T18:10:58.281Z,0.72
2019-05-20T18:13:24.949Z,0.60
2019-05-20T18:15:52.292Z,0.80
2019-05-20T18:18:18.750Z,0.50
2019-05-20T18:20:45.151Z,0.42
2019-05-20T18:23:11.587Z,0.40
2019-05-20T18:25:38.937Z,0.37
2019-05-20T18:28:05.395Z,0.60
2019-05-20T18:30:31.760Z,0.60
2019-05-20T18:32:58.136Z,0.80
2019-05-20T18:35:24.513Z,0.50
2019-05-20T18:37:50.926Z,0.50
2019-05-20T18:40:17.427Z,0.50
2019-05-20T18:42:43.880Z,0.45
2019-05-20T18:45:10.407Z,0.40
2019-05-20T18:47:37.776Z,0.70
2019-05-20T18:50:05.943Z,0.53
2019-05-20T18:52:32.371Z,0.60
2019-05-20T18:54:58.797Z,0.68
2019-05-20T18:57:25.168Z,0.50
2019-05-20T18:59:51.608Z,0.30
2019-05-20T19:02:18.017Z,0.28
2019-05-20T19:04:44.277Z,0.72
2019-05-20T19:07:10.626Z,0.62
2019-05-20T19:09:37.388Z,0.40
2019-05-20T19:12:03.903Z,0.33
2019-05-20T19:14:30.450Z,0.50
2019-05-20T19:16:57.509Z,0.37
2019-05-20T19:19:23.952Z,0.57
2019-05-20T19:21:50.317Z,0.40
2019-05-20T19:24:16.732Z,72.90
2019-05-20T19:26:43.162Z,58.90
2019-05-20T19:29:09.557Z,10.95
2019-05-20T19:31:37.088Z,3.02
2019-05-20T19:34:04.540Z,1.45
2019-05-20T19:36:31.010Z,0.98
2019-05-20T19:38:57.518Z,0.95
2019-05-20T19:41:23.966Z,0.90
2019-05-20T19:43:50.444Z,0.85
2019-05-20T19:46:16.829Z,0.70
2019-05-20T19:48:43.492Z,0.57
2019-05-20T19:51:10.053Z,0.80
2019-05-20T19:53:36.669Z,0.70
2019-05-20T19:56:03.064Z,0.72
2019-05-20T19:58:29.454Z,0.53
2019-05-20T20:00:56.826Z,1.10
2019-05-20T20:03:23.326Z,25.45
2019-05-20T20:05:49.760Z,48.38
2019-05-20T20:08:16.451Z,21.25
2019-05-20T20:10:42.877Z,5.17
2019-05-20T20:13:09.286Z,2.47
2019-05-20T20:15:37.826Z,1.05
2019-05-20T20:18:05.441Z,0.93
2019-05-20T20:20:32.047Z,0.60
2019-05-20T20:22:59.045Z,0.78
2019-05-20T20:25:26.431Z,0.50
2019-05-20T20:27:52.987Z,1.05
2019-05-20T20:30:19.466Z,0.98
2019-05-20T20:32:45.913Z,1.05
2019-05-20T20:35:12.297Z,1.15
2019-05-20T20:37:39.706Z,0.72
2019-05-20T20:40:07.545Z,0.95
2019-05-20T20:42:33.941Z,0.82
2019-05-20T20:45:01.353Z,0.95
2019-05-20T20:47:40.741Z,1.00
2019-05-20T20:49:57.204Z,1.00
2019-05-20T20:52:26.293Z,1.00
2019-05-20T20:54:52.726Z,5.28
2019-05-20T20:57:20.171Z,2.30
2019-05-20T20:59:49.985Z,1.80
2019-05-20T21:02:15.061Z,1.52
2019-05-20T21:04:41.409Z,0.62
2019-05-20T21:07:07.837Z,0.88
2019-05-20T21:09:34.499Z,0.90
2019-05-20T21:12:00.939Z,0.93
2019-05-20T21:14:28.399Z,1.17
2019-05-20T21:16:54.828Z,0.80
2019-05-20T21:19:23.027Z,1.00
2019-05-20T21:21:50.452Z,0.70
2019-05-20T21:24:17.883Z,0.60
2019-05-20T21:26:44.329Z,1.25
2019-05-20T21:29:10.758Z,0.68
2019-05-20T21:31:37.185Z,0.60
2019-05-20T21:34:03.652Z,0.62
2019-05-20T21:36:30.091Z,0.70
2019-05-20T21:38:56.453Z,0.50
2019-05-20T21:41:22.867Z,0.40
2019-05-20T21:43:50.233Z,0.62
2019-05-20T21:46:16.684Z,0.60
2019-05-20T21:48:43.133Z,0.40
2019-05-20T21:51:09.585Z,0.57
2019-05-20T21:53:36.022Z,0.50
2019-05-20T21:56:02.657Z,0.70
2019-05-20T21:58:29.123Z,0.65
2019-05-20T22:00:55.875Z,0.60
2019-05-20T22:03:24.935Z,0.60
2019-05-20T22:05:51.710Z,0.50
2019-05-20T22:08:18.126Z,0.50
2019-05-20T22:10:44.527Z,0.40
2019-05-20T22:13:10.978Z,0.50
2019-05-20T22:15:37.369Z,0.50
2019-05-20T22:18:03.789Z,0.70
2019-05-20T22:20:32.009Z,0.60
2019-05-20T22:23:15.310Z,0.57
2019-05-20T22:25:41.992Z,0.30
2019-05-20T22:28:12.511Z,0.50
2019-05-20T22:30:36.754Z,0.47
2019-05-20T22:33:03.155Z,0.80
2019-05-20T22:35:29.645Z,1.00
2019-05-20T22:37:56.049Z,0.53
2019-05-20T22:40:22.515Z,0.70
2019-05-20T22:42:48.890Z,0.42
2019-05-20T22:45:15.379Z,0.50
2019-05-20T22:47:42.729Z,1.20
2019-05-20T22:50:09.108Z,0.40
2019-05-20T22:52:35.427Z,0.40
2019-05-20T22:55:02.905Z,0.50
2019-05-20T22:57:29.275Z,0.75
2019-05-20T22:59:55.757Z,0.70
2019-05-20T23:02:22.259Z,0.60
2019-05-20T23:04:48.681Z,0.65
2019-05-20T23:07:15.205Z,0.40
2019-05-20T23:09:41.861Z,0.60
2019-05-20T23:12:08.394Z,0.60
2019-05-20T23:14:34.783Z,0.57
2019-05-20T23:17:01.211Z,0.37
2019-05-20T23:19:27.582Z,0.55
2019-05-20T23:21:54.095Z,0.90
2019-05-20T23:24:21.667Z,0.30
2019-05-20T23:26:48.121Z,0.60
2019-05-20T23:29:14.501Z,0.53
2019-05-20T23:31:42.791Z,0.60
2019-05-20T23:34:12.633Z,0.60
2019-05-20T23:36:37.304Z,0.47
2019-05-20T23:39:05.525Z,0.57
2019-05-20T23:41:31.800Z,0.60
2019-05-20T23:43:58.092Z,0.53
2019-05-20T23:46:24.576Z,0.50
2019-05-20T23:48:51.127Z,1.12
2019-05-20T23:51:17.544Z,0.55
2019-05-20T23:53:44.991Z,0.72
2019-05-20T23:56:11.385Z,0.65
2019-05-20T23:58:37.771Z,0.82
